createdAt,value
2022-12-20T00:00:48.811Z,7.75
2022-12-20T00:05:51.657Z,8.00
2022-12-20T00:10:54.458Z,8.75
2022-12-20T00:16:07.614Z,7.75
2022-12-20T00:21:12.363Z,7.00
2022-12-20T00:26:17.320Z,7.50
2022-12-20T00:31:23.417Z,8.25
2022-12-20T00:36:28.205Z,8.25
2022-12-20T00:41:33.634Z,7.50
2022-12-20T00:46:37.848Z,7.00
2022-12-20T00:51:40.806Z,7.50
2022-12-20T00:56:43.546Z,6.00
2022-12-20T01:01:48.813Z,7.00
2022-12-20T01:06:52.146Z,7.75
2022-12-20T01:11:55.008Z,6.00
2022-12-20T01:17:00.404Z,8.00
2022-12-20T01:22:03.405Z,6.75
2022-12-20T01:27:06.195Z,6.25
2022-12-20T01:32:10.703Z,7.50
2022-12-20T01:37:13.945Z,7.50
2022-12-20T01:42:17.276Z,6.25
2022-12-20T01:47:22.032Z,5.75
2022-12-20T01:52:31.110Z,6.00
2022-12-20T01:57:40.849Z,6.00
2022-12-20T02:02:48.047Z,5.25
2022-12-20T02:07:54.023Z,6.00
2022-12-20T02:13:05.657Z,6.75
2022-12-20T02:18:22.191Z,5.75
2022-12-20T02:23:49.707Z,5.75
2022-12-20T02:29:09.518Z,6.00
2022-12-20T02:34:14.954Z,5.00
2022-12-20T02:39:18.747Z,5.50
2022-12-20T02:44:44.918Z,5.00
2022-12-20T02:49:52.533Z,6.00
2022-12-20T02:54:56.627Z,5.50
2022-12-20T03:00:06.361Z,4.00
2022-12-20T03:05:12.712Z,4.50
2022-12-20T03:10:16.450Z,5.00
2022-12-20T03:15:19.325Z,6.00
2022-12-20T03:20:24.957Z,4.00
2022-12-20T03:25:28.057Z,6.00
2022-12-20T03:30:31.987Z,5.75
2022-12-20T03:35:36.365Z,4.75
2022-12-20T03:40:39.253Z,5.00
2022-12-20T03:45:42.655Z,3.50
2022-12-20T03:50:47.163Z,4.75
2022-12-20T03:55:50.110Z,4.00
2022-12-20T04:00:53.328Z,5.75
2022-12-20T04:06:17.975Z,5.50
2022-12-20T04:11:20.902Z,5.00
2022-12-20T04:16:32.228Z,4.00
2022-12-20T04:21:38.982Z,5.00
2022-12-20T04:26:42.791Z,5.00
2022-12-20T04:31:47.033Z,6.00
2022-12-20T04:36:52.023Z,5.00
2022-12-20T04:42:04.781Z,5.00
2022-12-20T04:47:07.698Z,5.00
2022-12-20T04:52:34.591Z,4.25
2022-12-20T04:57:37.453Z,5.00
2022-12-20T05:02:42.550Z,5.00
2022-12-20T05:07:50.567Z,4.50
2022-12-20T05:12:54.142Z,4.00
2022-12-20T05:18:10.260Z,4.00
2022-12-20T05:23:55.337Z,4.00
2022-12-20T05:29:00.472Z,4.75
2022-12-20T05:34:03.845Z,6.00
2022-12-20T05:39:12.568Z,4.00
2022-12-20T05:44:17.910Z,4.00
2022-12-20T05:49:24.113Z,5.00
2022-12-20T05:54:29.326Z,4.25
2022-12-20T05:59:38.774Z,5.00
2022-12-20T06:04:45.208Z,4.00
2022-12-20T06:09:58.760Z,4.75
2022-12-20T06:15:13.378Z,5.00
2022-12-20T06:20:18.075Z,4.50
2022-12-20T06:25:25.644Z,3.75
2022-12-20T06:30:33.664Z,4.00
2022-12-20T06:35:44.001Z,4.00
2022-12-20T06:40:48.440Z,3.50
2022-12-20T06:45:51.659Z,3.00
2022-12-20T06:50:56.327Z,4.25
2022-12-20T06:56:02.848Z,3.00
2022-12-20T07:01:08.099Z,3.50
2022-12-20T07:06:10.964Z,3.75
2022-12-20T07:11:15.156Z,3.50
2022-12-20T07:16:18.000Z,3.50
2022-12-20T07:21:21.487Z,3.50
2022-12-20T07:26:25.709Z,3.50
2022-12-20T07:31:29.453Z,4.00
2022-12-20T07:36:32.353Z,4.00
2022-12-20T07:41:36.830Z,4.00
2022-12-20T07:46:40.256Z,3.00
2022-12-20T07:51:47.129Z,4.00
2022-12-20T07:56:55.010Z,9.00
2022-12-20T08:02:04.255Z,12.00
2022-12-20T08:07:09.768Z,10.00
2022-12-20T08:12:17.432Z,9.00
2022-12-20T08:17:20.251Z,8.50
2022-12-20T08:22:23.146Z,7.50
2022-12-20T08:27:27.281Z,8.00
2022-12-20T08:32:30.452Z,6.00
2022-12-20T08:37:33.295Z,6.75
2022-12-20T08:42:37.507Z,6.75
2022-12-20T08:47:40.628Z,5.25
2022-12-20T08:52:43.505Z,5.75
2022-12-20T08:57:47.588Z,6.75
2022-12-20T09:02:51.987Z,5.00
2022-12-20T09:07:55.007Z,5.00
2022-12-20T09:12:59.078Z,6.25
2022-12-20T09:18:01.993Z,4.25
2022-12-20T09:23:04.775Z,4.00
2022-12-20T09:28:08.930Z,5.50
2022-12-20T09:33:11.893Z,4.75
2022-12-20T09:38:15.040Z,4.50
2022-12-20T09:43:20.854Z,4.75
2022-12-20T09:48:26.655Z,5.25
2022-12-20T09:53:38.381Z,4.50
2022-12-20T09:59:01.484Z,5.00
2022-12-20T10:04:07.641Z,4.00
2022-12-20T10:09:22.074Z,4.75
2022-12-20T10:14:40.872Z,4.50
2022-12-20T10:20:08.467Z,4.25
2022-12-20T10:25:18.863Z,4.00
2022-12-20T10:30:25.477Z,4.50
2022-12-20T10:35:31.351Z,4.00
2022-12-20T10:41:01.994Z,4.50
2022-12-20T10:46:04.877Z,3.50
2022-12-20T10:51:17.030Z,5.00
2022-12-20T10:56:23.906Z,4.50
2022-12-20T11:01:31.783Z,4.00
2022-12-20T11:06:44.119Z,3.75
2022-12-20T11:12:02.456Z,4.25
2022-12-20T11:17:23.569Z,3.00
2022-12-20T11:22:39.102Z,3.75
2022-12-20T11:27:50.496Z,4.75
2022-12-20T11:33:32.398Z,3.25
2022-12-20T11:38:42.652Z,3.00
2022-12-20T11:49:48.077Z,4.00
2022-12-20T11:54:59.671Z,3.75
2022-12-20T12:00:06.544Z,4.00
2022-12-20T12:05:24.552Z,4.50
2022-12-20T12:10:33.280Z,3.50
2022-12-20T12:15:42.592Z,3.00
2022-12-20T12:20:53.984Z,3.25
2022-12-20T12:25:56.849Z,3.00
2022-12-20T12:31:05.939Z,3.75
2022-12-20T12:36:47.134Z,3.00
2022-12-20T12:42:10.539Z,4.00
2022-12-20T12:47:20.154Z,4.00
2022-12-20T12:52:42.226Z,4.00
2022-12-20T12:57:58.414Z,4.00
2022-12-20T13:03:15.315Z,3.25
2022-12-20T13:08:19.359Z,3.50
2022-12-20T13:13:25.135Z,3.75
2022-12-20T13:18:29.231Z,11.00
2022-12-20T13:23:32.152Z,9.75
2022-12-20T13:28:48.886Z,10.25
2022-12-20T13:33:52.762Z,8.50
2022-12-20T13:38:58.500Z,7.75
2022-12-20T13:44:11.391Z,6.67
2022-12-20T13:49:26.619Z,7.00
2022-12-20T13:54:29.632Z,8.00
2022-12-20T13:59:34.451Z,7.00
2022-12-20T14:04:44.035Z,6.50
2022-12-20T14:09:48.282Z,6.75
2022-12-20T14:14:54.283Z,7.75
2022-12-20T14:20:13.524Z,6.75
2022-12-20T14:25:23.037Z,7.25
2022-12-20T14:30:31.930Z,6.25
2022-12-20T14:35:34.743Z,7.00
2022-12-20T14:40:42.862Z,8.00
2022-12-20T14:45:47.218Z,6.50
2022-12-20T14:50:53.607Z,6.25
2022-12-20T14:55:57.208Z,7.00
2022-12-20T15:01:04.822Z,7.25
2022-12-20T15:06:35.158Z,7.00
2022-12-20T15:11:39.268Z,6.00
2022-12-20T15:16:49.690Z,7.75
2022-12-20T15:21:53.219Z,7.00
2022-12-20T15:26:57.179Z,7.75
2022-12-20T15:32:07.826Z,6.25
2022-12-20T15:37:18.287Z,7.50
2022-12-20T15:42:22.955Z,5.50
2022-12-20T15:47:27.155Z,7.00
2022-12-20T15:52:30.070Z,7.00
2022-12-20T15:57:32.867Z,7.50
2022-12-20T16:02:37.453Z,7.50
2022-12-20T16:07:40.416Z,7.25
2022-12-20T16:12:43.549Z,7.75
2022-12-20T16:17:47.822Z,6.50
2022-12-20T16:22:50.618Z,6.25
2022-12-20T16:27:53.421Z,7.50
2022-12-20T16:32:59.297Z,7.00
2022-12-20T16:38:02.128Z,8.50
2022-12-20T16:43:05.188Z,7.25
2022-12-20T16:48:10.630Z,7.00
2022-12-20T16:53:16.426Z,7.25
2022-12-20T16:58:19.656Z,7.00
2022-12-20T17:03:24.080Z,7.00
2022-12-20T17:13:49.258Z,5.33
2022-12-20T17:18:55.111Z,5.75
2022-12-20T17:23:57.963Z,5.50
2022-12-20T17:29:01.364Z,5.75
2022-12-20T17:34:06.539Z,5.00
2022-12-20T17:39:09.941Z,6.25
2022-12-20T17:44:18.978Z,5.50
2022-12-20T17:49:23.586Z,7.00
2022-12-20T17:54:32.121Z,8.00
2022-12-20T17:59:39.662Z,6.00
2022-12-20T18:04:44.783Z,4.75
2022-12-20T18:09:48.874Z,6.00
2022-12-20T18:14:51.765Z,5.00
2022-12-20T18:19:55.931Z,5.00
2022-12-20T18:24:58.986Z,6.00
2022-12-20T18:30:01.992Z,5.00
2022-12-20T18:35:07.799Z,6.75
2022-12-20T18:40:11.825Z,4.00
2022-12-20T18:45:15.068Z,19.60
2022-12-20T18:50:19.308Z,19.00
2022-12-20T18:55:22.139Z,14.00
2022-12-20T19:00:25.221Z,15.40
2022-12-20T19:05:30.287Z,13.00
2022-12-20T19:10:33.434Z,12.25
2022-12-20T19:15:36.228Z,11.25
2022-12-20T19:20:40.776Z,11.00
2022-12-20T19:25:43.591Z,11.25
2022-12-20T19:30:46.546Z,12.00
2022-12-20T19:35:55.740Z,11.00
2022-12-20T19:40:59.043Z,11.75
2022-12-20T19:46:01.989Z,13.00
2022-12-20T19:51:10.064Z,13.75
2022-12-20T19:56:14.968Z,12.00
2022-12-20T20:01:18.808Z,13.25
2022-12-20T20:06:23.826Z,12.25
2022-12-20T20:11:28.028Z,14.00
2022-12-20T20:16:30.949Z,14.75
2022-12-20T20:21:37.790Z,13.75
2022-12-20T20:26:40.598Z,13.25
2022-12-20T20:31:43.488Z,12.50
2022-12-20T20:36:47.757Z,14.75
2022-12-20T20:41:50.667Z,13.20
2022-12-20T20:46:53.681Z,14.50
2022-12-20T20:51:57.889Z,13.60
2022-12-20T20:57:00.670Z,13.75
2022-12-20T21:02:03.770Z,14.25
2022-12-20T21:07:08.005Z,12.00
2022-12-20T21:12:11.041Z,13.50
2022-12-20T21:17:13.939Z,11.50
2022-12-20T21:22:18.118Z,13.25
2022-12-20T21:27:20.919Z,14.75
2022-12-20T21:32:23.777Z,12.00
2022-12-20T21:37:31.060Z,13.00
2022-12-20T21:42:33.954Z,13.00
2022-12-20T21:47:36.742Z,13.00
2022-12-20T21:52:40.928Z,12.00
2022-12-20T21:57:44.015Z,11.25
2022-12-20T22:02:47.264Z,13.50
2022-12-20T22:07:51.692Z,14.25
2022-12-20T22:12:54.566Z,10.75
2022-12-20T22:17:57.349Z,10.50
2022-12-20T22:23:01.552Z,11.00
2022-12-20T22:28:05.509Z,11.00
2022-12-20T22:33:08.458Z,13.25
2022-12-20T22:38:12.550Z,11.00
2022-12-20T22:43:15.264Z,10.00
2022-12-20T22:48:17.996Z,10.75
2022-12-20T22:53:22.198Z,10.50
2022-12-20T22:58:24.961Z,11.50
2022-12-20T23:03:29.120Z,11.00
2022-12-20T23:08:35.274Z,10.00
2022-12-20T23:13:56.971Z,11.50
2022-12-20T23:19:01.469Z,9.75
2022-12-20T23:24:06.304Z,9.75
2022-12-20T23:29:10.290Z,9.25
2022-12-20T23:34:13.509Z,9.75
2022-12-20T23:39:17.635Z,11.00
2022-12-20T23:44:20.388Z,8.25
2022-12-20T23:49:23.140Z,11.00
2022-12-20T23:54:27.361Z,10.00
2022-12-20T23:59:30.087Z,10.00
